Time,TemperatureF,DewpointF,PressureIn,WindDirection,WindDirectionDegrees,WindSpeedMPH,WindSpeedGustMPH,Humidity,HourlyPrecipIn,Conditions,Clouds,dailyrainin,SoftwareType,DateUTC
2013-08-02 00:10:00,63.2,46.0,29.99,ESE,111,0.0,4.0,53,0.00,,,0.00,weatherlink.com 1.10,2013-08-02 07:10:00,
2013-08-02 00:26:00,62.9,45.0,29.98,South,172,1.0,4.0,52,0.00,,,0.00,weatherlink.com 1.10,2013-08-02 07:26:00,
2013-08-02 00:41:00,63.2,45.0,29.98,SW,225,0.0,3.0,51,0.00,,,0.00,weatherlink.com 1.10,2013-08-02 07:41:00,
2013-08-02 00:56:00,62.8,45.0,29.98,South,181,0.0,3.0,52,0.00,,,0.00,weatherlink.com 1.10,2013-08-02 07:56:00,
2013-08-02 01:11:00,62.4,44.0,29.97,SSW,212,2.0,3.0,52,0.00,,,0.00,weatherlink.com 1.10,2013-08-02 08:11:00,
2013-08-02 01:26:00,62.0,44.0,29.97,SW,221,1.0,1.0,53,0.00,,,0.00,weatherlink.com 1.10,2013-08-02 08:26:00,
2013-08-02 01:41:00,61.6,45.0,29.97,NNW,337,3.0,3.0,55,0.00,,,0.00,weatherlink.com 1.10,2013-08-02 08:41:00,
2013-08-02 01:56:00,61.3,46.0,29.97,ESE,110,0.0,2.0,57,0.00,,,0.00,weatherlink.com 1.10,2013-08-02 08:56:00,
2013-08-02 02:11:00,60.7,46.0,29.97,ENE,78,1.0,3.0,59,0.00,,,0.00,weatherlink.com 1.10,2013-08-02 09:11:00,
2013-08-02 02:26:00,60.5,47.0,29.96,South,172,0.0,3.0,61,0.00,,,0.00,weatherlink.com 1.10,2013-08-02 09:26:00,
2013-08-02 02:41:00,59.7,47.0,29.96,SE,139,1.0,2.0,63,0.00,,,0.00,weatherlink.com 1.10,2013-08-02 09:41:00,
2013-08-02 02:56:00,59.4,47.0,29.96,ESE,109,1.0,3.0,63,0.00,,,0.00,weatherlink.com 1.10,2013-08-02 09:56:00,
2013-08-02 03:11:00,59.3,47.0,29.96,SSE,155,1.0,2.0,63,0.00,,,0.00,weatherlink.com 1.10,2013-08-02 10:11:00,
2013-08-02 03:26:00,59.0,47.0,29.96,SSW,207,0.0,2.0,65,0.00,,,0.00,weatherlink.com 1.10,2013-08-02 10:26:00,
2013-08-02 03:41:00,59.1,46.0,29.95,South,174,0.0,2.0,62,0.00,,,0.00,weatherlink.com 1.10,2013-08-02 10:41:00,
2013-08-02 03:56:00,58.7,46.0,29.95,SSE,164,0.0,0.0,63,0.00,,,0.00,weatherlink.com 1.10,2013-08-02 10:56:00,
2013-08-02 04:11:00,58.3,46.0,29.95,SSE,158,2.0,2.0,65,0.00,,,0.00,weatherlink.com 1.10,2013-08-02 11:11:00,
2013-08-02 04:26:00,58.3,46.0,29.95,SSE,158,1.0,2.0,65,0.00,,,0.00,weatherlink.com 1.10,2013-08-02 11:26:00,
2013-08-02 04:56:00,58.3,47.0,29.95,SSE,168,2.0,2.0,67,0.00,,,0.00,weatherlink.com 1.10,2013-08-02 11:56:00,
2013-08-02 05:11:00,58.5,47.0,29.95,SSE,148,1.0,2.0,67,0.00,,,0.00,weatherlink.com 1.10,2013-08-02 12:11:00,
2013-08-02 05:26:00,58.6,48.0,29.95,SSE,161,1.0,2.0,68,0.00,,,0.00,weatherlink.com 1.10,2013-08-02 12:26:00,
2013-08-02 05:41:00,58.8,48.0,29.95,SSE,155,2.0,2.0,67,0.00,,,0.00,weatherlink.com 1.10,2013-08-02 12:41:00,
2013-08-02 05:56:00,59.4,48.0,29.96,SSE,158,1.0,4.0,65,0.00,,,0.00,weatherlink.com 1.10,2013-08-02 12:56:00,
2013-08-02 06:11:00,59.1,48.0,29.96,SSW,195,0.0,2.0,67,0.00,,,0.00,weatherlink.com 1.10,2013-08-02 13:11:00,
2013-08-02 06:26:00,58.8,49.0,29.96,SSW,210,0.0,2.0,69,0.00,,,0.00,weatherlink.com 1.10,2013-08-02 13:26:00,
2013-08-02 06:42:00,59.3,49.0,29.96,SSE,168,0.0,1.0,69,0.00,,,0.00,weatherlink.com 1.10,2013-08-02 13:42:00,
2013-08-02 06:56:00,62.3,49.0,29.97,SSE,163,0.0,0.0,62,0.00,,,0.00,weatherlink.com 1.10,2013-08-02 13:56:00,
2013-08-02 07:11:00,65.8,49.0,29.98,SE,130,1.0,1.0,56,0.00,,,0.00,weatherlink.com 1.10,2013-08-02 14:11:00,
2013-08-02 07:41:00,69.2,51.0,29.98,SE,130,0.0,1.0,52,0.00,,,0.00,weatherlink.com 1.10,2013-08-02 14:41:00,
2013-08-02 07:56:00,69.4,50.0,29.99,South,170,0.0,0.0,51,0.00,,,0.00,weatherlink.com 1.10,2013-08-02 14:56:00,
2013-08-02 08:11:00,69.0,49.0,29.99,NNE,26,2.0,3.0,50,0.00,,,0.00,weatherlink.com 1.10,2013-08-02 15:11:00,
2013-08-02 08:26:00,69.0,52.0,30.00,NW,309,0.0,2.0,54,0.00,,,0.00,weatherlink.com 1.10,2013-08-02 15:26:00,
2013-08-02 08:41:00,70.5,50.0,30.00,NE,37,0.0,2.0,49,0.00,,,0.00,weatherlink.com 1.10,2013-08-02 15:41:00,
2013-08-02 08:57:00,73.6,51.0,30.00,South,170,1.0,3.0,45,0.00,,,0.00,weatherlink.com 1.10,2013-08-02 15:57:00,
2013-08-02 09:12:00,75.5,48.0,30.00,ENE,71,2.0,3.0,38,0.00,,,0.00,weatherlink.com 1.10,2013-08-02 16:12:00,
2013-08-02 09:27:00,77.8,48.0,30.00,ESE,120,1.0,3.0,35,0.00,,,0.00,weatherlink.com 1.10,2013-08-02 16:27:00,
2013-08-02 09:42:00,78.6,47.0,29.99,WNW,291,1.0,3.0,33,0.00,,,0.00,weatherlink.com 1.10,2013-08-02 16:42:00,
2013-08-02 09:57:00,79.5,49.0,29.99,North,1,2.0,2.0,34,0.00,,,0.00,weatherlink.com 1.10,2013-08-02 16:57:00,
2013-08-02 10:12:00,78.2,48.0,29.99,NE,40,1.0,5.0,34,0.00,,,0.00,weatherlink.com 1.10,2013-08-02 17:12:00,
2013-08-02 10:27:00,80.3,49.0,29.99,North,352,3.0,4.0,33,0.00,,,0.00,weatherlink.com 1.10,2013-08-02 17:27:00,
2013-08-02 10:42:00,81.7,49.0,29.99,NNE,13,2.0,4.0,32,0.00,,,0.00,weatherlink.com 1.10,2013-08-02 17:42:00,
2013-08-02 10:57:00,82.1,48.0,29.99,ESE,108,3.0,5.0,30,0.00,,,0.00,weatherlink.com 1.10,2013-08-02 17:57:00,
2013-08-02 11:12:00,82.7,45.0,29.98,NE,41,2.0,5.0,27,0.00,,,0.00,weatherlink.com 1.10,2013-08-02 18:12:00,
2013-08-02 11:27:00,83.3,47.0,29.98,NNW,328,1.0,5.0,28,0.00,,,0.00,weatherlink.com 1.10,2013-08-02 18:27:00,
2013-08-02 11:42:00,84.8,48.0,29.98,ESE,120,1.0,5.0,28,0.00,,,0.00,weatherlink.com 1.10,2013-08-02 18:42:00,
2013-08-02 11:57:00,85.5,45.0,29.98,SSW,203,1.0,5.0,24,0.00,,,0.00,weatherlink.com 1.10,2013-08-02 18:57:00,
2013-08-02 12:12:00,86.4,46.0,29.98,ESE,110,2.0,4.0,24,0.00,,,0.00,weatherlink.com 1.10,2013-08-02 19:12:00,
2013-08-02 12:27:00,86.5,45.0,29.97,SE,131,1.0,4.0,23,0.00,,,0.00,weatherlink.com 1.10,2013-08-02 19:27:00,
2013-08-02 12:42:00,86.5,42.0,29.97,SE,129,0.0,5.0,21,0.00,,,0.00,weatherlink.com 1.10,2013-08-02 19:42:00,
2013-08-02 12:57:00,86.6,42.0,29.96,SSE,148,1.0,7.0,21,0.00,,,0.00,weatherlink.com 1.10,2013-08-02 19:57:00,
2013-08-02 13:12:00,87.6,42.0,29.96,ESE,114,2.0,7.0,20,0.00,,,0.00,weatherlink.com 1.10,2013-08-02 20:12:00,
2013-08-02 13:27:00,88.4,41.0,29.96,SW,215,2.0,6.0,19,0.00,,,0.00,weatherlink.com 1.10,2013-08-02 20:27:00,
2013-08-02 13:42:00,88.9,40.0,29.96,SE,145,1.0,5.0,18,0.00,,,0.00,weatherlink.com 1.10,2013-08-02 20:42:00,
2013-08-02 13:57:00,89.7,41.0,29.95,East,94,6.0,6.0,18,0.00,,,0.00,weatherlink.com 1.10,2013-08-02 20:57:00,
2013-08-02 14:12:00,89.9,40.0,29.95,East,90,1.0,4.0,17,0.00,,,0.00,weatherlink.com 1.10,2013-08-02 21:12:00,
2013-08-02 14:27:00,89.3,39.0,29.95,ESE,112,3.0,6.0,17,0.00,,,0.00,weatherlink.com 1.10,2013-08-02 21:27:00,
2013-08-02 14:42:00,90.0,43.0,29.94,NE,43,4.0,6.0,19,0.00,,,0.00,weatherlink.com 1.10,2013-08-02 21:42:00,
2013-08-02 14:57:00,89.1,48.0,29.94,SSE,150,3.0,8.0,24,0.00,,,0.00,weatherlink.com 1.10,2013-08-02 21:57:00,
2013-08-02 15:12:00,88.4,46.0,29.94,SSE,148,2.0,7.0,23,0.00,,,0.00,weatherlink.com 1.10,2013-08-02 22:12:00,
2013-08-02 15:27:00,88.9,49.0,29.93,SE,136,2.0,5.0,25,0.00,,,0.00,weatherlink.com 1.10,2013-08-02 22:27:00,
2013-08-02 15:42:00,89.0,49.0,29.93,West,269,3.0,7.0,25,0.00,,,0.00,weatherlink.com 1.10,2013-08-02 22:42:00,
2013-08-02 15:58:00,87.9,49.0,29.93,East,98,1.0,6.0,26,0.00,,,0.00,weatherlink.com 1.10,2013-08-02 22:58:00,
2013-08-02 16:12:00,88.5,48.0,29.93,East,86,2.0,6.0,25,0.00,,,0.00,weatherlink.com 1.10,2013-08-02 23:12:00,
2013-08-02 16:27:00,87.0,48.0,29.93,ESE,104,5.0,7.0,26,0.00,,,0.00,weatherlink.com 1.10,2013-08-02 23:27:00,
2013-08-02 16:42:00,86.7,49.0,29.92,ENE,66,2.0,6.0,27,0.00,,,0.00,weatherlink.com 1.10,2013-08-02 23:42:00,
2013-08-02 16:57:00,86.6,50.0,29.92,East,91,0.0,6.0,28,0.00,,,0.00,weatherlink.com 1.10,2013-08-02 23:57:00,
2013-08-02 17:13:00,86.4,50.0,29.92,ESE,108,2.0,6.0,28,0.00,,,0.00,weatherlink.com 1.10,2013-08-03 00:13:00,
2013-08-02 17:28:00,85.4,49.0,29.92,SE,124,4.0,6.0,28,0.00,,,0.00,weatherlink.com 1.10,2013-08-03 00:28:00,
2013-08-02 17:43:00,84.9,48.0,29.92,East,89,4.0,4.0,28,0.00,,,0.00,weatherlink.com 1.10,2013-08-03 00:43:00,
2013-08-02 17:58:00,83.7,48.0,29.92,ESE,112,1.0,6.0,29,0.00,,,0.00,weatherlink.com 1.10,2013-08-03 00:58:00,
2013-08-02 18:13:00,82.8,47.0,29.91,East,89,2.0,5.0,29,0.00,,,0.00,weatherlink.com 1.10,2013-08-03 01:13:00,
2013-08-02 18:28:00,81.7,48.0,29.91,SSW,194,2.0,6.0,31,0.00,,,0.00,weatherlink.com 1.10,2013-08-03 01:28:00,
2013-08-02 18:43:00,80.6,49.0,29.92,SSE,149,2.0,5.0,33,0.00,,,0.00,weatherlink.com 1.10,2013-08-03 01:43:00,
2013-08-02 18:58:00,79.8,49.0,29.91,SE,129,2.0,5.0,34,0.00,,,0.00,weatherlink.com 1.10,2013-08-03 01:58:00,
2013-08-02 19:13:00,79.2,49.0,29.92,SSE,166,0.0,4.0,35,0.00,,,0.00,weatherlink.com 1.10,2013-08-03 02:13:00,
2013-08-02 19:28:00,78.3,49.0,29.92,SE,139,1.0,4.0,36,0.00,,,0.00,weatherlink.com 1.10,2013-08-03 02:28:00,
2013-08-02 19:43:00,77.2,50.0,29.92,SE,124,0.0,2.0,38,0.00,,,0.00,weatherlink.com 1.10,2013-08-03 02:43:00,
2013-08-02 19:58:00,75.5,49.0,29.92,SSW,211,0.0,1.0,39,0.00,,,0.00,weatherlink.com 1.10,2013-08-03 02:58:00,
2013-08-02 20:13:00,73.9,49.0,29.93,SSW,211,1.0,1.0,41,0.00,,,0.00,weatherlink.com 1.10,2013-08-03 03:13:00,
2013-08-02 20:28:00,72.5,49.0,29.93,SSW,212,0.0,1.0,43,0.00,,,0.00,weatherlink.com 1.10,2013-08-03 03:28:00,
2013-08-02 20:43:00,71.0,49.0,29.93,WSW,238,0.0,1.0,45,0.00,,,0.00,weatherlink.com 1.10,2013-08-03 03:43:00,
2013-08-02 20:58:00,70.3,48.0,29.93,WSW,238,0.0,1.0,46,0.00,,,0.00,weatherlink.com 1.10,2013-08-03 03:58:00,
2013-08-02 21:13:00,70.4,48.0,29.94,WSW,238,0.0,1.0,45,0.00,,,0.00,weatherlink.com 1.10,2013-08-03 04:13:00,
2013-08-02 21:28:00,70.2,48.0,29.94,WSW,238,0.0,0.0,45,0.00,,,0.00,weatherlink.com 1.10,2013-08-03 04:28:00,
2013-08-02 21:43:00,69.6,48.0,29.95,WSW,238,0.0,0.0,46,0.00,,,0.00,weatherlink.com 1.10,2013-08-03 04:43:00,
2013-08-02 21:58:00,69.6,48.0,29.95,WSW,238,0.0,0.0,46,0.00,,,0.00,weatherlink.com 1.10,2013-08-03 04:58:00,
2013-08-02 22:13:00,69.2,47.0,29.95,WSW,238,0.0,0.0,46,0.00,,,0.00,weatherlink.com 1.10,2013-08-03 05:13:00,
2013-08-02 22:28:00,69.1,46.0,29.95,WSW,238,0.0,0.0,44,0.00,,,0.00,weatherlink.com 1.10,2013-08-03 05:28:00,
2013-08-02 22:43:00,68.5,46.0,29.95,WSW,238,0.0,0.0,44,0.00,,,0.00,weatherlink.com 1.10,2013-08-03 05:43:00,
2013-08-02 22:58:00,68.6,46.0,29.94,WSW,238,0.0,0.0,44,0.00,,,0.00,weatherlink.com 1.10,2013-08-03 05:58:00,
2013-08-02 23:13:00,68.5,45.0,29.94,WSW,238,0.0,0.0,43,0.00,,,0.00,weatherlink.com 1.10,2013-08-03 06:13:00,
2013-08-02 23:28:00,68.2,45.0,29.94,WSW,238,0.0,0.0,43,0.00,,,0.00,weatherlink.com 1.10,2013-08-03 06:28:00,
2013-08-02 23:43:00,68.0,43.0,29.94,WSW,238,0.0,0.0,40,0.00,,,0.00,weatherlink.com 1.10,2013-08-03 06:43:00,
2013-08-02 23:58:00,68.0,40.0,29.94,West,264,0.0,1.0,36,0.00,,,0.00,weatherlink.com 1.10,2013-08-03 06:58:00,